createdAt,value
2023-04-22T00:00:25.679Z,9.45
2023-04-22T00:01:27.201Z,10.32
2023-04-22T00:02:29.741Z,8.65
2023-04-22T00:03:32.913Z,10.45
2023-04-22T00:04:37.261Z,9.98
2023-04-22T00:05:41.811Z,9.65
2023-04-22T00:06:45.476Z,10.20
2023-04-22T00:07:47.108Z,9.98
2023-04-22T00:08:49.690Z,9.73
2023-04-22T00:09:51.196Z,10.38
2023-04-22T00:10:53.701Z,9.75
2023-04-22T00:11:55.223Z,9.82
2023-04-22T00:12:57.663Z,10.45
2023-04-22T00:13:59.223Z,9.88
2023-04-22T00:15:02.153Z,10.00
2023-04-22T00:16:04.513Z,10.02
2023-04-22T00:17:07.747Z,9.82
2023-04-22T00:18:14.261Z,9.52
2023-04-22T00:19:17.126Z,10.48
2023-04-22T00:20:21.389Z,9.57
2023-04-22T00:21:25.224Z,9.93
2023-04-22T00:22:26.947Z,10.85
2023-04-22T00:23:29.426Z,10.57
2023-04-22T00:24:31.065Z,9.90
2023-04-22T00:25:34.472Z,9.88
2023-04-22T00:26:36.051Z,9.65
2023-04-22T00:27:38.565Z,9.40
2023-04-22T00:28:40.233Z,10.10
2023-04-22T00:29:42.661Z,10.07
2023-04-22T00:30:44.227Z,9.07
2023-04-22T00:31:46.839Z,9.95
2023-04-22T00:32:50.603Z,9.55
2023-04-22T00:33:53.732Z,9.88
2023-04-22T00:34:55.985Z,9.60
2023-04-22T00:35:58.652Z,9.50
2023-04-22T00:37:01.930Z,9.48
2023-04-22T00:38:04.401Z,9.60
2023-04-22T00:39:06.352Z,10.23
2023-04-22T00:40:10.367Z,10.18
2023-04-22T00:41:12.414Z,9.77
2023-04-22T00:42:15.157Z,10.05
2023-04-22T00:43:17.523Z,9.63
2023-04-22T00:44:20.160Z,9.93
2023-04-22T00:45:21.927Z,9.63
2023-04-22T00:46:24.837Z,10.00
2023-04-22T00:47:27.860Z,10.63
2023-04-22T00:48:30.769Z,9.63
2023-04-22T00:49:32.524Z,10.55
2023-04-22T00:50:35.348Z,10.18
2023-04-22T00:51:37.090Z,10.10
2023-04-22T00:52:40.976Z,10.10
2023-04-22T00:53:43.239Z,10.20
2023-04-22T00:54:46.788Z,9.60
2023-04-22T00:55:48.563Z,9.63
2023-04-22T00:56:51.357Z,10.20
2023-04-22T00:57:55.427Z,10.10
2023-04-22T00:58:58.932Z,10.23
2023-04-22T01:00:00.620Z,9.90
2023-04-22T01:01:03.474Z,10.63
2023-04-22T01:02:05.515Z,9.32
2023-04-22T01:03:08.466Z,11.50
2023-04-22T01:04:12.898Z,10.43
2023-04-22T01:05:15.476Z,10.43
2023-04-22T01:06:19.130Z,10.13
2023-04-22T01:07:21.690Z,10.50
2023-04-22T01:08:28.681Z,10.68
2023-04-22T01:09:31.588Z,9.57
2023-04-22T01:10:33.118Z,10.13
2023-04-22T01:11:36.722Z,10.02
2023-04-22T01:12:38.351Z,9.82
2023-04-22T01:13:40.931Z,9.65
2023-04-22T01:14:42.907Z,10.25
2023-04-22T01:15:45.479Z,9.25
2023-04-22T01:16:47.066Z,10.13
2023-04-22T01:17:49.887Z,10.45
2023-04-22T01:18:52.944Z,9.85
2023-04-22T01:19:55.680Z,9.75
2023-04-22T01:20:57.519Z,9.50
2023-04-22T01:22:02.448Z,10.15
2023-04-22T01:23:10.116Z,9.95
2023-04-22T01:24:14.170Z,9.30
2023-04-22T01:25:16.042Z,9.73
2023-04-22T01:26:18.517Z,10.10
2023-04-22T01:27:21.493Z,10.13
2023-04-22T01:28:24.530Z,9.65
2023-04-22T01:29:26.531Z,10.23
2023-04-22T01:30:29.232Z,11.10
2023-04-22T01:31:31.323Z,9.80
2023-04-22T01:32:34.488Z,9.98
2023-04-22T01:33:36.127Z,10.18
2023-04-22T01:34:38.654Z,10.40
2023-04-22T01:35:41.241Z,10.38
2023-04-22T01:36:44.891Z,10.27
2023-04-22T01:37:46.512Z,10.07
2023-04-22T01:38:49.183Z,10.70
2023-04-22T01:39:52.112Z,10.60
2023-04-22T01:40:54.877Z,10.00
2023-04-22T01:41:56.983Z,10.23
2023-04-22T01:43:00.429Z,10.02
2023-04-22T01:44:03.784Z,10.65
2023-04-22T01:45:07.663Z,10.05
2023-04-22T01:46:09.896Z,10.70
2023-04-22T01:47:13.364Z,10.20
2023-04-22T01:48:14.931Z,10.48
2023-04-22T01:49:18.086Z,9.80
2023-04-22T01:50:20.233Z,9.63
2023-04-22T01:51:23.524Z,10.32
2023-04-22T01:52:26.950Z,9.73
2023-04-22T01:53:29.545Z,9.98
2023-04-22T01:54:31.267Z,10.23
2023-04-22T01:55:36.117Z,10.15
2023-04-22T01:56:38.875Z,10.40
2023-04-22T01:57:41.575Z,9.77
2023-04-22T01:58:44.079Z,10.38
2023-04-22T01:59:46.588Z,10.13
2023-04-22T02:00:48.065Z,10.00
2023-04-22T02:01:50.777Z,10.02
2023-04-22T02:02:52.409Z,9.73
2023-04-22T02:03:55.145Z,10.02
2023-04-22T02:04:57.045Z,10.07
2023-04-22T02:05:59.562Z,9.80
2023-04-22T02:07:01.170Z,9.88
2023-04-22T02:08:03.671Z,10.02
2023-04-22T02:09:05.458Z,9.13
2023-04-22T02:10:09.418Z,9.85
2023-04-22T02:11:12.364Z,10.15
2023-04-22T02:12:14.851Z,9.73
2023-04-22T02:13:16.385Z,9.75
2023-04-22T02:14:18.807Z,10.30
2023-04-22T02:15:20.568Z,9.77
2023-04-22T02:16:23.364Z,10.25
2023-04-22T02:17:24.981Z,9.55
2023-04-22T02:18:27.751Z,10.02
2023-04-22T02:19:29.410Z,9.55
2023-04-22T02:20:31.922Z,9.63
2023-04-22T02:21:33.760Z,9.15
2023-04-22T02:22:36.863Z,9.68
2023-04-22T02:23:39.439Z,9.35
2023-04-22T02:24:43.054Z,9.50
2023-04-22T02:25:48.683Z,8.85
2023-04-22T02:26:52.438Z,9.50
2023-04-22T02:27:53.986Z,9.98
2023-04-22T02:28:56.439Z,9.82
2023-04-22T02:29:57.960Z,9.43
2023-04-22T02:31:00.569Z,9.73
2023-04-22T02:32:02.393Z,9.40
2023-04-22T02:33:04.932Z,9.43
2023-04-22T02:34:06.513Z,9.40
2023-04-22T02:35:09.789Z,9.23
2023-04-22T02:36:11.340Z,9.30
2023-04-22T02:37:13.930Z,9.25
2023-04-22T02:38:15.701Z,8.63
2023-04-22T02:39:18.212Z,9.38
2023-04-22T02:40:20.151Z,9.20
2023-04-22T02:41:22.642Z,9.25
2023-04-22T02:42:25.491Z,9.25
2023-04-22T02:43:28.050Z,9.25
2023-04-22T02:44:29.542Z,9.55
2023-04-22T02:45:32.053Z,8.95
2023-04-22T02:46:34.242Z,9.13
2023-04-22T02:47:36.819Z,9.15
2023-04-22T02:48:38.365Z,9.63
2023-04-22T02:49:41.369Z,9.32
2023-04-22T02:50:43.354Z,9.40
2023-04-22T02:51:45.969Z,9.18
2023-04-22T02:52:47.523Z,8.70
2023-04-22T02:53:50.117Z,9.02
2023-04-22T02:54:51.701Z,9.35
2023-04-22T02:55:55.709Z,8.85
2023-04-22T02:56:58.015Z,9.05
2023-04-22T02:58:01.864Z,9.50
2023-04-22T02:59:03.414Z,9.05
2023-04-22T03:00:08.010Z,8.48
2023-04-22T03:01:09.604Z,9.65
2023-04-22T03:02:12.272Z,9.38
2023-04-22T03:03:14.417Z,9.68
2023-04-22T03:04:17.224Z,9.30
2023-04-22T03:05:19.347Z,8.75
2023-04-22T03:06:21.842Z,8.73
2023-04-22T03:07:23.458Z,9.52
2023-04-22T03:08:26.538Z,9.30
2023-04-22T03:09:28.060Z,8.63
2023-04-22T03:10:30.540Z,8.95
2023-04-22T03:11:32.062Z,9.27
2023-04-22T03:12:34.634Z,9.38
2023-04-22T03:13:37.582Z,9.35
2023-04-22T03:14:40.016Z,8.98
2023-04-22T03:15:41.833Z,9.23
2023-04-22T03:16:44.396Z,8.90
2023-04-22T03:17:46.057Z,9.43
2023-04-22T03:18:48.612Z,9.38
2023-04-22T03:19:50.320Z,9.07
2023-04-22T03:20:52.785Z,9.00
2023-04-22T03:21:54.350Z,9.57
2023-04-22T03:22:57.219Z,9.15
2023-04-22T03:23:58.952Z,9.18
2023-04-22T03:25:01.996Z,9.65
2023-04-22T03:26:03.655Z,8.57
2023-04-22T03:27:06.702Z,9.43
2023-04-22T03:28:08.242Z,9.00
2023-04-22T03:29:12.093Z,9.10
2023-04-22T03:30:13.859Z,8.88
2023-04-22T03:31:16.350Z,9.52
2023-04-22T03:32:18.494Z,9.27
2023-04-22T03:33:21.239Z,9.13
2023-04-22T03:34:23.179Z,9.00
2023-04-22T03:35:25.924Z,8.95
2023-04-22T03:36:28.686Z,9.32
2023-04-22T03:37:30.321Z,8.65
2023-04-22T03:38:32.803Z,8.50
2023-04-22T03:39:34.377Z,9.88
2023-04-22T03:40:37.216Z,8.75
2023-04-22T03:41:39.043Z,9.82
2023-04-22T03:42:41.536Z,8.63
2023-04-22T03:43:43.025Z,9.05
2023-04-22T03:44:46.821Z,8.93
2023-04-22T03:45:49.139Z,8.65
2023-04-22T03:46:51.704Z,8.88
2023-04-22T03:47:53.874Z,8.82
2023-04-22T03:48:56.402Z,8.70
2023-04-22T03:49:58.003Z,8.50
2023-04-22T03:51:00.682Z,8.43
2023-04-22T03:52:02.524Z,8.63
2023-04-22T03:53:05.104Z,8.15
2023-04-22T03:54:06.910Z,8.68
2023-04-22T03:55:10.647Z,9.30
2023-04-22T03:56:12.181Z,8.95
2023-04-22T03:57:14.736Z,8.38
2023-04-22T03:58:16.467Z,8.52
2023-04-22T03:59:19.474Z,8.57
2023-04-22T04:00:22.451Z,9.50
2023-04-22T04:01:24.924Z,8.38
2023-04-22T04:02:26.640Z,8.00
2023-04-22T04:03:31.021Z,8.20
2023-04-22T04:04:33.442Z,8.00
2023-04-22T04:05:36.592Z,7.93
2023-04-22T04:06:38.422Z,8.90
2023-04-22T04:07:41.039Z,9.50
2023-04-22T04:08:42.578Z,8.32
2023-04-22T04:09:45.109Z,8.40
2023-04-22T04:10:46.615Z,7.78
2023-04-22T04:11:49.112Z,7.95
2023-04-22T04:12:50.656Z,8.48
2023-04-22T04:13:53.157Z,7.75
2023-04-22T04:14:54.713Z,7.85
2023-04-22T04:16:00.183Z,8.63
2023-04-22T04:17:03.601Z,8.45
2023-04-22T04:18:06.270Z,8.63
2023-04-22T04:19:08.939Z,8.25
2023-04-22T04:20:11.203Z,8.35
2023-04-22T04:21:13.715Z,8.25
2023-04-22T04:22:15.222Z,9.48
2023-04-22T04:23:18.382Z,8.65
2023-04-22T04:24:19.952Z,7.88
2023-04-22T04:25:22.594Z,8.63
2023-04-22T04:26:25.173Z,8.77
2023-04-22T04:27:27.920Z,8.10
2023-04-22T04:28:32.341Z,8.07
2023-04-22T04:29:34.928Z,7.90
2023-04-22T04:30:37.114Z,8.13
2023-04-22T04:31:40.981Z,8.00
2023-04-22T04:32:43.050Z,8.02
2023-04-22T04:33:46.629Z,8.07
2023-04-22T04:34:48.301Z,7.75
2023-04-22T04:35:51.517Z,7.97
2023-04-22T04:36:53.058Z,7.68
2023-04-22T04:37:55.525Z,7.72
2023-04-22T04:38:57.019Z,7.10
2023-04-22T04:40:00.303Z,7.95
2023-04-22T04:41:02.390Z,8.25
2023-04-22T04:42:05.035Z,7.13
2023-04-22T04:43:08.619Z,7.78
2023-04-22T04:44:11.239Z,7.65
2023-04-22T04:45:12.763Z,7.53
2023-04-22T04:46:16.625Z,7.68
2023-04-22T04:47:20.102Z,7.57
2023-04-22T04:48:25.099Z,7.45
2023-04-22T04:49:26.896Z,7.13
2023-04-22T04:50:30.390Z,7.43
2023-04-22T04:51:32.533Z,8.10
2023-04-22T04:52:35.078Z,6.97
2023-04-22T04:53:36.733Z,7.80
2023-04-22T04:54:39.245Z,8.88
2023-04-22T04:55:40.821Z,8.65
2023-04-22T04:56:43.477Z,7.70
2023-04-22T04:57:45.774Z,7.63
2023-04-22T04:58:48.312Z,7.15
2023-04-22T04:59:49.870Z,7.28
2023-04-22T05:00:52.676Z,8.10
2023-04-22T05:01:54.829Z,6.93
2023-04-22T05:02:58.902Z,7.60
2023-04-22T05:04:00.796Z,7.85
2023-04-22T05:05:03.709Z,7.13
2023-04-22T05:06:06.015Z,7.32
2023-04-22T05:07:08.714Z,7.38
2023-04-22T05:08:11.245Z,7.80
2023-04-22T05:09:12.830Z,7.75
2023-04-22T05:10:15.708Z,7.18
2023-04-22T05:11:17.269Z,7.20
2023-04-22T05:12:20.028Z,7.15
2023-04-22T05:13:22.502Z,7.43
2023-04-22T05:14:25.314Z,7.60
2023-04-22T05:15:26.913Z,8.13
2023-04-22T05:16:29.980Z,7.55
2023-04-22T05:17:31.936Z,7.03
2023-04-22T05:18:35.886Z,7.47
2023-04-22T05:19:37.526Z,7.85
2023-04-22T05:20:40.310Z,7.40
2023-04-22T05:21:41.813Z,7.30
2023-04-22T05:22:45.919Z,7.43
2023-04-22T05:23:47.599Z,7.55
2023-04-22T05:24:50.139Z,7.70
2023-04-22T05:25:53.454Z,6.95
2023-04-22T05:26:57.391Z,7.10
2023-04-22T05:27:58.921Z,7.63
2023-04-22T05:29:01.406Z,7.40
2023-04-22T05:30:03.364Z,7.63
2023-04-22T05:31:06.775Z,7.43
2023-04-22T05:32:09.522Z,7.30
2023-04-22T05:33:11.204Z,7.78
2023-04-22T05:34:15.173Z,7.43
2023-04-22T05:35:16.851Z,7.38
2023-04-22T05:36:19.381Z,7.75
2023-04-22T05:37:21.590Z,6.95
2023-04-22T05:38:24.077Z,7.05
2023-04-22T05:39:26.193Z,7.05
2023-04-22T05:40:28.664Z,7.78
2023-04-22T05:41:30.270Z,7.30
2023-04-22T05:42:32.754Z,7.28
2023-04-22T05:43:34.341Z,7.72
2023-04-22T05:44:36.765Z,7.63
2023-04-22T05:45:38.415Z,7.72
2023-04-22T05:46:40.944Z,7.22
2023-04-22T05:47:42.516Z,7.72
2023-04-22T05:48:45.011Z,7.60
2023-04-22T05:49:48.111Z,7.13
2023-04-22T05:50:50.550Z,7.25
2023-04-22T05:51:52.036Z,7.78
2023-04-22T05:52:56.597Z,7.90
2023-04-22T05:53:58.178Z,8.02
2023-04-22T05:55:00.686Z,8.57
2023-04-22T05:56:02.535Z,7.72
2023-04-22T05:57:05.413Z,7.75
2023-04-22T05:58:07.061Z,7.95
2023-04-22T05:59:09.529Z,7.35
2023-04-22T06:00:12.294Z,8.40
2023-04-22T06:01:14.902Z,8.02
2023-04-22T06:02:16.559Z,8.02
2023-04-22T06:03:19.236Z,7.78
2023-04-22T06:04:21.133Z,7.82
2023-04-22T06:05:25.328Z,7.85
2023-04-22T06:06:27.554Z,7.95
2023-04-22T06:07:30.322Z,7.90
2023-04-22T06:08:32.160Z,8.00
2023-04-22T06:09:34.686Z,7.70
2023-04-22T06:10:36.235Z,8.25
2023-04-22T06:11:38.734Z,7.97
2023-04-22T06:12:40.746Z,8.57
2023-04-22T06:13:43.203Z,8.80
2023-04-22T06:14:44.725Z,9.10
2023-04-22T06:15:47.215Z,8.68
2023-04-22T06:16:50.371Z,8.45
2023-04-22T06:17:53.145Z,8.13
2023-04-22T06:18:54.685Z,8.35
2023-04-22T06:19:57.428Z,7.88
2023-04-22T06:21:00.249Z,9.05
2023-04-22T06:22:03.060Z,8.32
2023-04-22T06:23:05.340Z,7.70
2023-04-22T06:24:09.061Z,7.35
2023-04-22T06:25:10.643Z,6.97
2023-04-22T06:26:13.485Z,6.97
2023-04-22T06:27:15.131Z,8.63
2023-04-22T06:28:17.711Z,7.50
2023-04-22T06:29:19.228Z,7.38
2023-04-22T06:30:22.062Z,7.28
2023-04-22T06:31:23.838Z,7.13
2023-04-22T06:32:26.329Z,6.20
2023-04-22T06:33:28.360Z,6.18
2023-04-22T06:34:30.841Z,6.20
2023-04-22T06:35:32.480Z,6.50
2023-04-22T06:36:38.617Z,5.97
2023-04-22T06:37:40.213Z,5.70
2023-04-22T06:38:42.644Z,5.93
2023-04-22T06:39:44.213Z,5.53
2023-04-22T06:40:46.700Z,6.28
2023-04-22T06:41:49.131Z,5.78
2023-04-22T06:42:51.769Z,5.72
2023-04-22T06:43:53.273Z,5.50
2023-04-22T06:44:55.815Z,5.30
2023-04-22T06:45:57.329Z,4.95
2023-04-22T06:46:59.937Z,5.20
2023-04-22T06:48:01.557Z,5.47
2023-04-22T06:49:04.123Z,5.53
2023-04-22T06:50:08.235Z,4.90
2023-04-22T06:51:09.845Z,4.68
2023-04-22T06:52:13.950Z,5.55
2023-04-22T06:53:15.711Z,4.53
2023-04-22T06:54:18.308Z,5.38
2023-04-22T06:55:20.170Z,4.60
2023-04-22T06:56:22.618Z,4.75
2023-04-22T06:57:24.242Z,5.00
2023-04-22T06:58:26.771Z,5.35
2023-04-22T06:59:28.300Z,4.97
2023-04-22T07:00:30.778Z,5.38
2023-04-22T07:01:35.035Z,4.65
2023-04-22T07:02:37.825Z,4.82
2023-04-22T07:03:39.572Z,5.25
2023-04-22T07:04:42.236Z,5.30
2023-04-22T07:05:44.209Z,4.88
2023-04-22T07:06:46.904Z,5.07
2023-04-22T07:07:49.805Z,4.57
2023-04-22T07:08:52.357Z,5.85
2023-04-22T07:09:53.990Z,5.53
2023-04-22T07:11:59.407Z,4.63
2023-04-22T07:13:02.120Z,4.70
2023-04-22T07:14:03.773Z,4.80
2023-04-22T07:15:07.537Z,4.88
2023-04-22T07:16:09.199Z,5.53
2023-04-22T07:17:12.358Z,5.32
2023-04-22T07:18:13.931Z,4.50
2023-04-22T07:19:25.470Z,4.32
2023-04-22T07:20:47.097Z,4.45
2023-04-22T07:22:09.732Z,5.20
2023-04-22T07:23:33.695Z,4.38
2023-04-22T07:24:56.347Z,5.93
2023-04-22T07:26:19.102Z,5.03
2023-04-22T07:27:41.594Z,5.20
2023-04-22T07:29:04.099Z,4.60
2023-04-22T07:30:26.815Z,4.93
2023-04-22T07:31:49.323Z,4.68
2023-04-22T07:33:10.969Z,5.32
2023-04-22T07:34:33.468Z,5.35
2023-04-22T07:35:55.913Z,5.22
2023-04-22T07:37:18.378Z,4.63
2023-04-22T07:38:42.270Z,5.30
2023-04-22T07:40:05.924Z,4.85
2023-04-22T07:41:28.833Z,5.07
2023-04-22T07:42:50.374Z,4.70
2023-04-22T07:44:16.434Z,4.10
2023-04-22T07:45:39.250Z,4.40
2023-04-22T07:47:01.036Z,4.50
2023-04-22T07:48:24.002Z,5.05
2023-04-22T07:49:46.639Z,4.32
2023-04-22T07:51:16.891Z,3.97
2023-04-22T07:52:39.403Z,4.28
2023-04-22T07:54:02.313Z,4.50
2023-04-22T07:55:25.191Z,4.13
2023-04-22T07:56:46.735Z,4.55
2023-04-22T07:58:09.303Z,3.97
2023-04-22T07:59:30.848Z,4.30
2023-04-22T08:00:53.396Z,3.72
2023-04-22T08:02:16.137Z,4.10
2023-04-22T08:03:38.848Z,4.10
2023-04-22T08:05:01.811Z,4.00
2023-04-22T08:06:24.647Z,3.85
2023-04-22T08:07:47.175Z,4.00
2023-04-22T08:09:11.250Z,4.30
2023-04-22T08:10:33.309Z,3.80
2023-04-22T08:11:56.630Z,4.00
2023-04-22T08:13:19.107Z,4.28
2023-04-22T08:14:41.930Z,4.32
2023-04-22T08:16:05.296Z,4.10
2023-04-22T08:17:28.015Z,4.07
2023-04-22T08:18:52.322Z,4.10
2023-04-22T08:20:15.636Z,4.03
2023-04-22T08:21:38.524Z,4.88
2023-04-22T08:23:01.155Z,4.07
2023-04-22T08:24:24.217Z,4.10
2023-04-22T08:25:46.765Z,4.40
2023-04-22T08:27:08.424Z,3.58
2023-04-22T08:28:30.954Z,4.50
2023-04-22T08:29:53.553Z,4.30
2023-04-22T08:31:16.159Z,4.30
2023-04-22T08:32:38.700Z,3.42
2023-04-22T08:34:01.485Z,4.25
2023-04-22T08:35:24.230Z,4.22
2023-04-22T08:36:45.827Z,4.18
2023-04-22T08:38:08.368Z,4.35
2023-04-22T08:39:32.591Z,4.03
2023-04-22T08:40:57.932Z,4.72
2023-04-22T08:42:19.894Z,4.47
2023-04-22T08:43:43.640Z,3.95
2023-04-22T08:45:07.246Z,4.40
2023-04-22T08:46:32.264Z,4.47
2023-04-22T08:47:55.575Z,4.68
2023-04-22T08:49:18.859Z,4.78
2023-04-22T08:50:42.049Z,4.53
2023-04-22T08:52:04.663Z,3.97
2023-04-22T08:53:28.975Z,4.35
2023-04-22T08:54:53.540Z,3.85
2023-04-22T08:56:16.623Z,4.10
2023-04-22T08:57:39.992Z,4.93
2023-04-22T08:59:02.862Z,4.32
2023-04-22T09:00:25.532Z,4.00
2023-04-22T09:01:52.053Z,3.58
2023-04-22T09:03:16.494Z,4.00
2023-04-22T09:04:38.268Z,4.22
2023-04-22T09:06:04.372Z,4.55
2023-04-22T09:07:29.540Z,3.90
2023-04-22T09:08:53.146Z,3.83
2023-04-22T09:10:17.246Z,3.70
2023-04-22T09:11:38.829Z,3.83
2023-04-22T09:13:02.184Z,3.42
2023-04-22T09:14:26.284Z,3.78
2023-04-22T09:15:47.888Z,3.75
2023-04-22T09:17:10.761Z,3.30
2023-04-22T09:18:40.999Z,3.67
2023-04-22T09:20:06.155Z,3.55
2023-04-22T09:21:29.352Z,3.92
2023-04-22T09:22:50.901Z,3.47
2023-04-22T09:24:13.700Z,3.65
2023-04-22T09:25:39.334Z,3.50
2023-04-22T09:27:03.762Z,3.50
2023-04-22T09:28:26.321Z,3.53
2023-04-22T09:29:48.950Z,3.25
2023-04-22T09:31:15.674Z,3.20
2023-04-22T09:32:38.242Z,3.40
2023-04-22T09:34:01.732Z,4.05
2023-04-22T09:35:28.939Z,3.50
2023-04-22T09:36:52.139Z,3.40
2023-04-22T09:38:14.683Z,3.90
2023-04-22T09:39:36.343Z,2.85
2023-04-22T09:41:00.393Z,3.40
2023-04-22T09:42:25.889Z,4.25
2023-04-22T09:43:47.425Z,3.40
2023-04-22T09:45:11.281Z,2.90
2023-04-22T09:46:34.869Z,3.35
2023-04-22T09:48:01.407Z,2.92
2023-04-22T09:49:26.692Z,3.00
2023-04-22T09:50:50.934Z,3.58
2023-04-22T09:52:21.660Z,3.42
2023-04-22T09:53:44.301Z,3.42
2023-04-22T09:55:10.401Z,3.75
2023-04-22T09:56:49.345Z,3.70
2023-04-22T09:58:13.821Z,3.03
2023-04-22T09:59:35.674Z,3.38
2023-04-22T10:00:59.970Z,3.33
2023-04-22T10:02:30.284Z,4.35
2023-04-22T10:03:51.951Z,3.70
2023-04-22T10:05:14.693Z,2.80
2023-04-22T10:06:37.339Z,3.97
2023-04-22T10:08:00.187Z,3.72
2023-04-22T10:09:25.033Z,2.60
2023-04-22T10:10:48.111Z,3.22
2023-04-22T10:12:11.276Z,2.70
2023-04-22T10:13:33.846Z,2.88
2023-04-22T10:14:56.355Z,2.60
2023-04-22T10:16:20.892Z,3.15
2023-04-22T10:17:45.726Z,2.55
2023-04-22T10:19:13.676Z,2.90
2023-04-22T10:20:38.042Z,3.70
2023-04-22T10:22:03.369Z,3.10
2023-04-22T10:23:26.309Z,2.78
2023-04-22T10:24:50.170Z,2.47
2023-04-22T10:26:12.727Z,2.95
2023-04-22T10:27:36.700Z,2.30
2023-04-22T10:28:58.269Z,3.00
2023-04-22T10:30:28.905Z,2.53
2023-04-22T10:31:55.572Z,2.83
2023-04-22T10:33:37.156Z,2.97
2023-04-22T10:35:14.535Z,3.17
2023-04-22T10:36:53.878Z,2.10
2023-04-22T10:38:17.582Z,2.97
2023-04-22T10:39:42.020Z,3.08
2023-04-22T10:41:04.362Z,2.92
2023-04-22T10:42:29.592Z,3.10
2023-04-22T10:43:59.633Z,3.33
2023-04-22T10:45:26.535Z,2.80
2023-04-22T10:47:01.015Z,3.00
2023-04-22T10:48:50.689Z,3.20
2023-04-22T10:50:17.485Z,3.25
2023-04-22T10:51:40.810Z,2.92
2023-04-22T10:53:36.695Z,3.22
2023-04-22T10:54:59.889Z,3.10
2023-04-22T10:56:22.353Z,3.15
2023-04-22T10:57:47.059Z,3.30
2023-04-22T10:59:17.004Z,2.90
2023-04-22T11:00:53.185Z,2.90
2023-04-22T11:02:16.773Z,2.45
2023-04-22T11:03:39.783Z,2.70
2023-04-22T11:05:20.415Z,2.20
2023-04-22T11:06:42.946Z,2.20
2023-04-22T11:08:09.694Z,2.42
2023-04-22T11:09:31.265Z,2.42
2023-04-22T11:10:55.234Z,2.83
2023-04-22T11:12:42.679Z,3.10
2023-04-22T11:14:05.878Z,3.13
2023-04-22T11:15:30.258Z,3.10
2023-04-22T11:16:53.156Z,3.20
2023-04-22T11:18:19.775Z,2.67
2023-04-22T11:19:43.296Z,2.83
2023-04-22T11:21:09.139Z,3.05
2023-04-22T11:22:34.892Z,2.85
2023-04-22T11:24:02.752Z,3.17
2023-04-22T11:25:26.305Z,2.40
2023-04-22T11:26:48.815Z,2.95
2023-04-22T11:28:11.352Z,3.53
2023-04-22T11:29:34.313Z,3.05
2023-04-22T11:31:04.857Z,2.60
2023-04-22T11:32:27.041Z,2.95
2023-04-22T11:33:50.911Z,2.92
2023-04-22T11:35:14.568Z,3.95
2023-04-22T11:36:37.185Z,2.63
2023-04-22T11:38:01.007Z,3.00
2023-04-22T11:39:23.491Z,2.85
2023-04-22T11:40:47.220Z,3.00
2023-04-22T11:42:10.426Z,2.88
2023-04-22T11:43:32.970Z,2.70
2023-04-22T11:44:54.526Z,3.00
2023-04-22T11:46:29.625Z,3.20
2023-04-22T11:47:53.145Z,2.95
2023-04-22T11:49:16.325Z,3.15
2023-04-22T11:50:40.512Z,3.20
2023-04-22T11:52:03.067Z,2.50
2023-04-22T11:53:25.869Z,3.60
2023-04-22T11:54:47.477Z,3.20
2023-04-22T11:56:10.071Z,3.05
2023-04-22T11:57:36.196Z,3.08
2023-04-22T11:58:58.659Z,2.55
2023-04-22T12:00:20.566Z,2.40
2023-04-22T12:01:44.704Z,2.58
2023-04-22T12:03:09.073Z,2.40
2023-04-22T12:04:36.351Z,2.55
2023-04-22T12:06:01.688Z,2.42
2023-04-22T12:07:23.434Z,2.70
2023-04-22T12:08:47.424Z,2.50
2023-04-22T12:10:11.186Z,2.58
2023-04-22T12:11:33.688Z,2.67
2023-04-22T12:12:55.250Z,2.53
2023-04-22T12:14:17.724Z,2.22
2023-04-22T12:15:42.348Z,2.50
2023-04-22T12:17:10.687Z,2.53
2023-04-22T12:18:34.453Z,2.75
2023-04-22T12:19:57.389Z,3.05
2023-04-22T12:21:22.300Z,3.67
2023-04-22T12:22:45.165Z,3.40
2023-04-22T12:24:11.326Z,3.80
2023-04-22T12:25:33.966Z,2.47
2023-04-22T12:26:56.818Z,2.88
2023-04-22T12:28:19.727Z,2.47
2023-04-22T12:29:52.152Z,2.40
2023-04-22T12:31:16.263Z,3.30
2023-04-22T12:32:40.149Z,2.75
2023-04-22T12:34:02.851Z,2.22
2023-04-22T12:35:25.566Z,2.85
2023-04-22T12:36:48.980Z,3.17
2023-04-22T12:38:11.576Z,2.67
2023-04-22T12:39:33.120Z,3.15
2023-04-22T12:40:55.909Z,2.92
2023-04-22T12:42:18.400Z,2.92
2023-04-22T12:43:40.973Z,3.05
2023-04-22T12:45:04.339Z,2.78
2023-04-22T12:46:27.026Z,2.92
2023-04-22T12:47:53.678Z,2.85
2023-04-22T12:49:16.358Z,3.10
2023-04-22T12:50:41.584Z,2.50
2023-04-22T12:52:03.119Z,2.72
2023-04-22T12:53:26.707Z,2.30
2023-04-22T12:54:49.206Z,2.60
2023-04-22T12:56:11.939Z,2.50
2023-04-22T12:57:34.592Z,2.67
2023-04-22T12:58:57.360Z,2.70
2023-04-22T13:00:20.957Z,2.47
2023-04-22T13:01:42.477Z,3.05
2023-04-22T13:03:06.639Z,3.08
2023-04-22T13:04:29.354Z,2.90
2023-04-22T13:05:53.257Z,2.50
2023-04-22T13:07:17.400Z,2.75
2023-04-22T13:08:39.894Z,2.47
2023-04-22T13:10:02.426Z,2.60
2023-04-22T13:11:24.585Z,2.38
2023-04-22T13:12:47.008Z,2.50
2023-04-22T13:14:09.473Z,2.90
2023-04-22T13:15:32.005Z,3.13
2023-04-22T13:16:53.550Z,2.50
2023-04-22T13:18:17.519Z,2.63
2023-04-22T13:19:40.405Z,2.47
2023-04-22T13:21:03.191Z,2.47
2023-04-22T13:22:25.762Z,2.50
2023-04-22T13:23:48.248Z,2.40
2023-04-22T13:25:11.435Z,2.40
2023-04-22T13:26:34.085Z,2.22
2023-04-22T13:27:56.508Z,2.60
2023-04-22T13:29:19.087Z,2.58
2023-04-22T13:30:41.691Z,2.75
2023-04-22T13:32:05.798Z,2.78
2023-04-22T13:33:29.690Z,2.90
2023-04-22T13:34:52.677Z,2.50
2023-04-22T13:36:15.183Z,2.40
2023-04-22T13:37:37.751Z,2.30
2023-04-22T13:39:01.369Z,3.30
2023-04-22T13:40:24.074Z,2.20
2023-04-22T13:41:46.606Z,2.22
2023-04-22T13:43:09.376Z,2.25
2023-04-22T13:44:31.811Z,2.58
2023-04-22T13:45:54.436Z,2.22
2023-04-22T13:47:17.112Z,2.10
2023-04-22T13:48:41.265Z,2.20
2023-04-22T13:50:05.373Z,2.38
2023-04-22T13:51:27.843Z,2.42
2023-04-22T13:52:50.591Z,2.55
2023-04-22T13:54:13.096Z,2.30
2023-04-22T13:55:34.691Z,2.38
2023-04-22T13:56:58.545Z,2.10
2023-04-22T13:58:21.018Z,2.05
2023-04-22T13:59:43.503Z,2.10
2023-04-22T14:01:06.516Z,2.20
2023-04-22T14:02:29.214Z,2.45
2023-04-22T14:03:54.892Z,2.67
2023-04-22T14:05:17.838Z,2.53
2023-04-22T14:06:40.316Z,2.10
2023-04-22T14:08:02.799Z,2.65
2023-04-22T14:09:25.335Z,2.40
2023-04-22T14:10:46.907Z,2.33
2023-04-22T14:12:11.371Z,2.20
2023-04-22T14:13:33.988Z,2.13
2023-04-22T14:14:56.640Z,2.72
2023-04-22T14:16:19.858Z,2.30
2023-04-22T14:17:41.569Z,2.10
2023-04-22T14:19:06.155Z,2.20
2023-04-22T14:20:28.718Z,4.40
2023-04-22T14:21:51.173Z,3.08
2023-04-22T14:23:12.677Z,3.22
2023-04-22T14:24:35.186Z,3.78
2023-04-22T14:25:57.012Z,7.43
2023-04-22T14:27:19.524Z,7.05
2023-04-22T14:28:41.775Z,12.65
2023-04-22T14:30:08.438Z,15.10
2023-04-22T14:31:30.957Z,32.65
2023-04-22T14:32:53.919Z,57.60
2023-04-22T14:34:18.076Z,14.38
2023-04-22T14:35:40.968Z,7.18
2023-04-22T14:37:03.457Z,6.63
2023-04-22T14:38:26.009Z,2.55
2023-04-22T14:39:48.635Z,2.40
2023-04-22T14:41:11.378Z,2.15
2023-04-22T14:42:34.044Z,2.30
2023-04-22T14:43:56.563Z,2.40
2023-04-22T14:45:19.306Z,2.70
2023-04-22T14:46:41.850Z,2.88
2023-04-22T14:48:03.777Z,2.20
2023-04-22T14:49:27.645Z,2.45
2023-04-22T14:50:50.275Z,2.33
2023-04-22T14:52:12.900Z,2.53
2023-04-22T14:53:35.816Z,2.65
2023-04-22T14:55:00.230Z,2.50
2023-04-22T14:56:26.179Z,2.58
2023-04-22T14:57:49.113Z,2.85
2023-04-22T14:59:11.589Z,2.30
2023-04-22T15:00:34.162Z,2.00
2023-04-22T15:01:56.717Z,2.30
2023-04-22T15:03:19.941Z,2.50
2023-04-22T15:04:44.426Z,2.50
2023-04-22T15:06:06.963Z,2.40
2023-04-22T15:07:29.733Z,2.40
2023-04-22T15:08:52.284Z,2.10
2023-04-22T15:10:17.036Z,2.10
2023-04-22T15:11:39.560Z,2.00
2023-04-22T15:13:02.037Z,2.28
2023-04-22T15:14:23.536Z,2.00
2023-04-22T15:15:46.765Z,2.42
2023-04-22T15:17:08.466Z,2.38
2023-04-22T15:18:31.030Z,2.05
2023-04-22T15:19:57.589Z,2.53
2023-04-22T15:21:20.064Z,3.08
2023-04-22T15:22:42.792Z,2.50
2023-04-22T15:24:05.524Z,2.55
2023-04-22T15:25:28.069Z,2.72
2023-04-22T15:26:52.830Z,2.50
2023-04-22T15:28:15.430Z,2.55
2023-04-22T15:29:41.028Z,2.63
2023-04-22T15:31:03.938Z,3.03
2023-04-22T15:32:26.534Z,3.80
2023-04-22T15:33:49.007Z,3.42
2023-04-22T15:35:12.797Z,4.00
2023-04-22T15:36:35.434Z,3.47
2023-04-22T15:37:58.708Z,2.33
2023-04-22T15:39:21.409Z,2.55
2023-04-22T15:40:44.319Z,2.42
2023-04-22T15:42:06.861Z,2.65
2023-04-22T15:43:28.430Z,2.70
2023-04-22T15:44:50.931Z,2.47
2023-04-22T15:46:14.605Z,9.55
2023-04-22T15:47:38.757Z,20.05
2023-04-22T15:49:01.898Z,3.60
2023-04-22T15:50:26.370Z,3.25
2023-04-22T15:51:48.925Z,5.03
2023-04-22T15:53:11.436Z,4.95
2023-04-22T15:54:33.955Z,6.88
2023-04-22T15:55:56.441Z,10.23
2023-04-22T15:57:19.915Z,6.47
2023-04-22T15:58:41.745Z,3.13
2023-04-22T16:00:11.818Z,2.75
2023-04-22T16:01:35.525Z,2.50
2023-04-22T16:02:58.379Z,2.05
2023-04-22T16:04:21.309Z,2.38